Time;durP1;ratioP1;P1;durP2;ratioP2;P2;SDS_P1;SDS_P2;PMS_P1;PMS_P2;Temp;Humidity;BMP_temperature;BMP_pressure;BME280_temperature;BME280_humidity;BME280_pressure;Samples;Min_cycle;Max_cycle;Signal;HPM_P1;HPM_P2
2021/01/02 00:00:23;;;;;;;;;46.67;42.67;;;;;;;;4948677;28;8787;-84
2021/01/02 00:03:13;;;;;;;;;52.33;48.00;;;;;;;;4948674;28;8886;-85
2021/01/02 00:05:47;;;;;;;;;42.33;41.67;;;;;;;;4951614;28;8855;-85
2021/01/02 00:08:17;;;;;;;;;49.33;47.33;;;;;;;;4948365;28;8928;-84
2021/01/02 00:10:52;;;;;;;;;60.50;53.75;;;;;;;;4944815;28;8888;-84
2021/01/02 00:13:40;;;;;;;;;47.67;45.00;;;;;;;;4952923;28;8871;-84
2021/01/02 00:16:20;;;;;;;;;59.67;50.67;;;;;;;;4947625;28;8900;-92
2021/01/02 00:19:03;;;;;;;;;41.67;41.67;;;;;;;;4952147;28;8875;-90
2021/01/02 00:21:31;;;;;;;;;43.33;43.33;;;;;;;;4969863;28;8893;-91
2021/01/02 00:24:28;;;;;;;;;41.67;41.67;;;;;;;;4952824;28;8873;-92
2021/01/02 00:27:11;;;;;;;;;55.00;49.00;;;;;;;;4947387;28;8854;-91
2021/01/02 00:30:08;;;;;;;;;40.00;40.00;;;;;;;;4948347;28;8940;-89
2021/01/02 00:32:48;;;;;;;;;58.00;52.67;;;;;;;;4941682;28;8824;-88
2021/01/02 00:35:19;;;;;;;;;54.33;48.33;;;;;;;;4952428;28;8888;-85
2021/01/02 00:37:48;;;;;;;;;57.00;52.00;;;;;;;;4947883;28;8866;-90
2021/01/02 00:40:16;;;;;;;;;45.33;42.33;;;;;;;;4947509;28;8885;-90
2021/01/02 00:42:46;;;;;;;;;36.00;36.00;;;;;;;;4951207;28;8863;-88
2021/01/02 00:45:14;;;;;;;;;55.00;50.67;;;;;;;;4946742;28;8947;-88
2021/01/02 00:47:42;;;;;;;;;46.33;45.33;;;;;;;;4933590;28;8876;-88
2021/01/02 00:50:10;;;;;;;;;48.00;45.00;;;;;;;;4930501;28;8912;-89
2021/01/02 00:52:58;;;;;;;;;44.67;44.33;;;;;;;;4948533;28;9898;-89
2021/01/02 00:55:55;;;;;;;;;52.33;48.67;;;;;;;;4949988;28;8865;-91
2021/01/02 00:58:43;;;;;;;;;39.33;39.33;;;;;;;;4917035;28;8925;-85
2021/01/02 01:01:18;;;;;;;;;44.00;43.67;;;;;;;;4946806;28;8844;-87
2021/01/02 01:04:03;;;;;;;;;45.00;44.33;;;;;;;;4937145;28;8857;-87
2021/01/02 01:06:37;;;;;;;;;47.33;45.33;;;;;;;;4940971;28;8874;-86
2021/01/02 01:09:05;;;;;;;;;36.67;36.67;;;;;;;;4956730;28;8873;-86
2021/01/02 01:11:35;;;;;;;;;42.00;42.00;;;;;;;;4931193;28;8874;-87
2021/01/02 01:14:06;;;;;;;;;48.33;45.00;;;;;;;;4952817;28;8879;-87
2021/01/02 01:16:44;;;;;;;;;43.00;43.00;;;;;;;;4938901;28;8890;-87
2021/01/02 01:19:12;;;;;;;;;42.33;42.33;;;;;;;;4947663;28;8881;-85
2021/01/02 01:21:44;;;;;;;;;43.67;43.67;;;;;;;;4949960;28;8889;-88
2021/01/02 01:24:13;;;;;;;;;58.67;51.33;;;;;;;;4954628;28;8893;-88
2021/01/02 01:27:04;;;;;;;;;51.75;48.75;;;;;;;;4951274;28;8998;-86
2021/01/02 01:29:41;;;;;;;;;61.75;53.00;;;;;;;;4946850;28;8873;-84
2021/01/02 01:32:09;;;;;;;;;60.00;53.50;;;;;;;;4946584;28;8821;-86
2021/01/02 01:34:37;;;;;;;;;68.25;58.00;;;;;;;;4943082;28;8877;-85
2021/01/02 01:37:06;;;;;;;;;65.25;54.00;;;;;;;;4948563;28;8996;-87
2021/01/02 01:39:34;;;;;;;;;59.50;53.50;;;;;;;;4950714;28;8889;-87
2021/01/02 01:42:04;;;;;;;;;63.00;54.25;;;;;;;;4936790;28;8879;-88
2021/01/02 01:44:47;;;;;;;;;67.00;57.25;;;;;;;;4947213;28;8877;-85
2021/01/02 01:47:16;;;;;;;;;73.25;61.75;;;;;;;;4947181;28;8873;-87
2021/01/02 01:50:21;;;;;;;;;60.50;52.75;;;;;;;;4949500;28;8927;-86
2021/01/02 01:53:27;;;;;;;;;55.75;50.50;;;;;;;;4947316;28;8887;-87
2021/01/02 01:56:00;;;;;;;;;66.25;55.75;;;;;;;;4943900;28;8883;-87
2021/01/02 01:58:38;;;;;;;;;61.50;53.00;;;;;;;;4941592;28;8843;-88
2021/01/02 02:01:06;;;;;;;;;44.25;43.50;;;;;;;;4946864;28;8795;-86
2021/01/02 02:03:47;;;;;;;;;44.00;42.50;;;;;;;;4944353;28;9081;-86
2021/01/02 02:06:25;;;;;;;;;56.50;51.75;;;;;;;;4947937;28;8887;-87
2021/01/02 02:08:58;;;;;;;;;54.00;50.00;;;;;;;;4948603;28;8857;-88
2021/01/02 02:11:44;;;;;;;;;57.75;52.00;;;;;;;;4945269;28;8884;-87
2021/01/02 02:14:13;;;;;;;;;54.25;48.75;;;;;;;;4950491;28;8880;-87
2021/01/02 02:16:46;;;;;;;;;56.75;49.25;;;;;;;;4947221;28;8875;-87
2021/01/02 02:19:41;;;;;;;;;47.75;45.00;;;;;;;;4951784;28;8882;-83
2021/01/02 02:22:15;;;;;;;;;56.50;50.00;;;;;;;;4948433;28;8941;-85
2021/01/02 02:24:43;;;;;;;;;2.50;2.50;;;;;;;;4947426;28;8895;-84
2021/01/02 02:27:13;;;;;;;;;45.00;41.75;;;;;;;;4947645;28;8881;-83
2021/01/02 02:29:52;;;;;;;;;54.00;48.75;;;;;;;;4954212;28;8870;-83
2021/01/02 02:32:23;;;;;;;;;51.00;48.50;;;;;;;;4946003;28;8833;-85
2021/01/02 02:34:51;;;;;;;;;54.00;50.25;;;;;;;;4949662;28;8899;-83
2021/01/02 02:37:17;;;;;;;;;52.50;45.00;;;;;;;;4947450;28;8873;-85
2021/01/02 02:39:46;;;;;;;;;59.50;53.50;;;;;;;;4950035;28;8865;-85
2021/01/02 02:42:15;;;;;;;;;54.00;50.00;;;;;;;;4952025;28;9614;-85
2021/01/02 02:44:46;;;;;;;;;52.00;48.00;;;;;;;;4954428;28;8879;-82
2021/01/02 02:47:16;;;;;;;;;46.50;45.00;;;;;;;;4953735;28;8905;-83
2021/01/02 02:49:47;;;;;;;;;57.50;49.50;;;;;;;;4958029;28;8879;-82
2021/01/02 02:52:24;;;;;;;;;59.75;51.00;;;;;;;;4959850;28;8939;-83
2021/01/02 02:54:51;;;;;;;;;47.75;45.25;;;;;;;;4948082;28;8893;-87
2021/01/02 02:57:19;;;;;;;;;45.50;45.00;;;;;;;;4950188;28;8873;-85
2021/01/02 02:59:45;;;;;;;;;42.75;42.00;;;;;;;;4956050;28;8990;-87
2021/01/02 03:02:14;;;;;;;;;57.50;47.50;;;;;;;;4956517;28;8810;-86
2021/01/02 03:04:43;;;;;;;;;48.00;46.00;;;;;;;;4934650;28;8882;-84
2021/01/02 03:07:10;;;;;;;;;49.25;47.25;;;;;;;;4921369;28;8886;-85
2021/01/02 03:09:36;;;;;;;;;46.00;41.25;;;;;;;;4956062;28;9738;-86
2021/01/02 03:12:04;;;;;;;;;47.25;46.00;;;;;;;;4948787;28;8903;-85
2021/01/02 03:14:31;;;;;;;;;47.00;46.00;;;;;;;;4963511;28;8867;-81
2021/01/02 03:16:58;;;;;;;;;50.75;48.00;;;;;;;;4946770;28;8877;-82
2021/01/02 03:19:26;;;;;;;;;50.75;48.25;;;;;;;;4948888;28;8889;-81
2021/01/02 03:21:53;;;;;;;;;45.50;43.50;;;;;;;;4948871;28;8914;-80
2021/01/02 03:24:20;;;;;;;;;51.50;48.50;;;;;;;;4952877;28;8859;-80
2021/01/02 03:26:47;;;;;;;;;49.75;46.50;;;;;;;;4951201;28;9636;-80
2021/01/02 03:29:14;;;;;;;;;47.25;45.00;;;;;;;;4952634;28;8931;-82
2021/01/02 03:31:41;;;;;;;;;65.25;50.75;;;;;;;;4954596;28;9600;-82
2021/01/02 03:34:09;;;;;;;;;51.25;48.25;;;;;;;;4962607;28;8855;-82
2021/01/02 03:36:36;;;;;;;;;58.25;52.50;;;;;;;;4965393;28;9859;-82
2021/01/02 03:39:04;;;;;;;;;52.50;46.50;;;;;;;;4932162;28;8886;-82
2021/01/02 03:41:31;;;;;;;;;44.50;44.50;;;;;;;;4950444;28;8869;-79
2021/01/02 03:44:00;;;;;;;;;47.50;45.00;;;;;;;;4949023;28;8913;-80
2021/01/02 03:46:28;;;;;;;;;42.75;41.00;;;;;;;;4955292;28;8883;-82
2021/01/02 03:48:55;;;;;;;;;46.25;44.00;;;;;;;;4948062;28;8866;-83
2021/01/02 03:51:23;;;;;;;;;38.00;36.75;;;;;;;;4969070;28;8892;-83
2021/01/02 03:53:50;;;;;;;;;51.25;46.50;;;;;;;;4948701;28;8862;-87
2021/01/02 03:56:18;;;;;;;;;53.00;47.50;;;;;;;;4931259;28;8952;-86
2021/01/02 03:58:45;;;;;;;;;43.75;43.75;;;;;;;;4947996;28;8874;-84
2021/01/02 04:01:13;;;;;;;;;48.75;46.50;;;;;;;;4951314;28;8819;-84
2021/01/02 04:03:40;;;;;;;;;41.00;41.00;;;;;;;;4949048;28;8875;-83
2021/01/02 04:06:07;;;;;;;;;42.75;42.75;;;;;;;;4948337;28;8883;-83
2021/01/02 04:08:34;;;;;;;;;39.25;38.50;;;;;;;;4945932;28;8916;-83
2021/01/02 04:11:01;;;;;;;;;43.25;43.00;;;;;;;;4952411;28;9432;-83
2021/01/02 04:13:29;;;;;;;;;44.25;43.75;;;;;;;;4947278;28;8889;-84
2021/01/02 04:15:56;;;;;;;;;55.50;48.50;;;;;;;;4952953;28;8891;-83
2021/01/02 04:18:23;;;;;;;;;55.75;50.50;;;;;;;;4945783;28;8923;-83
2021/01/02 04:20:50;;;;;;;;;51.50;48.00;;;;;;;;4950465;28;8916;-84
2021/01/02 04:23:19;;;;;;;;;50.25;45.75;;;;;;;;4924900;28;8912;-84
2021/01/02 04:25:46;;;;;;;;;54.25;49.50;;;;;;;;4940534;28;8901;-82
2021/01/02 04:28:13;;;;;;;;;47.00;45.00;;;;;;;;4952502;28;8863;-83
2021/01/02 04:30:41;;;;;;;;;56.75;50.25;;;;;;;;4944983;28;8855;-84
2021/01/02 04:33:08;;;;;;;;;40.25;37.50;;;;;;;;4964743;28;8865;-83
2021/01/02 04:35:35;;;;;;;;;45.75;44.75;;;;;;;;4952917;28;8890;-83
2021/01/02 04:38:02;;;;;;;;;53.00;48.75;;;;;;;;4931855;28;8919;-85
2021/01/02 04:40:37;;;;;;;;;46.25;42.25;;;;;;;;4951438;28;8911;-85
2021/01/02 04:43:04;;;;;;;;;37.00;37.00;;;;;;;;4943614;28;9374;-86
2021/01/02 04:45:31;;;;;;;;;50.00;46.75;;;;;;;;4951804;28;9616;-85
2021/01/02 04:48:06;;;;;;;;;44.50;44.50;;;;;;;;4949044;28;9652;-87
2021/01/02 04:50:34;;;;;;;;;51.50;47.50;;;;;;;;4948831;28;8936;-89
2021/01/02 04:53:04;;;;;;;;;40.50;40.00;;;;;;;;4945996;28;8870;-84
2021/01/02 04:55:32;;;;;;;;;59.75;53.00;;;;;;;;4947000;28;8869;-84
2021/01/02 04:58:00;;;;;;;;;29.75;29.00;;;;;;;;4946511;28;8868;-86
2021/01/02 05:00:27;;;;;;;;;51.00;47.00;;;;;;;;4947969;28;8750;-83
2021/01/02 05:02:55;;;;;;;;;46.00;45.00;;;;;;;;4949214;28;8877;-84
2021/01/02 05:05:22;;;;;;;;;52.25;48.00;;;;;;;;4961857;28;8866;-85
2021/01/02 05:07:49;;;;;;;;;39.00;34.50;;;;;;;;4952762;28;8879;-84
2021/01/02 05:10:16;;;;;;;;;50.50;47.50;;;;;;;;4939597;28;8888;-87
2021/01/02 05:12:44;;;;;;;;;55.50;48.50;;;;;;;;4959811;28;8913;-86
2021/01/02 05:15:13;;;;;;;;;55.00;48.75;;;;;;;;4933725;28;9297;-85
2021/01/02 05:17:41;;;;;;;;;59.00;51.75;;;;;;;;4946341;28;8881;-86
2021/01/02 05:20:10;;;;;;;;;58.50;48.50;;;;;;;;4947781;28;8930;-84
2021/01/02 05:22:39;;;;;;;;;59.75;51.50;;;;;;;;4948185;28;8891;-85
2021/01/02 05:25:13;;;;;;;;;60.50;50.50;;;;;;;;4949578;28;8871;-85
2021/01/02 05:27:42;;;;;;;;;55.00;49.00;;;;;;;;4946752;28;9024;-83
2021/01/02 05:30:25;;;;;;;;;53.75;49.50;;;;;;;;4946678;28;8882;-83
2021/01/02 05:32:56;;;;;;;;;53.75;48.50;;;;;;;;4957075;28;8962;-82
2021/01/02 05:35:24;;;;;;;;;49.00;45.25;;;;;;;;4943842;28;8896;-82
2021/01/02 05:37:52;;;;;;;;;62.00;54.00;;;;;;;;4939509;28;8857;-82
2021/01/02 05:40:36;;;;;;;;;59.50;51.75;;;;;;;;4946371;28;8898;-82
2021/01/02 05:43:03;;;;;;;;;58.75;50.50;;;;;;;;4947660;28;9698;-82
2021/01/02 05:45:30;;;;;;;;;57.75;52.25;;;;;;;;4928252;28;8913;-82
2021/01/02 05:47:58;;;;;;;;;55.75;49.25;;;;;;;;4945275;28;8919;-82
2021/01/02 05:50:25;;;;;;;;;51.25;48.00;;;;;;;;4946369;28;8884;-86
2021/01/02 05:52:53;;;;;;;;;48.75;46.75;;;;;;;;4945762;28;8954;-87
2021/01/02 05:55:29;;;;;;;;;58.25;48.75;;;;;;;;4947218;28;8897;-86
2021/01/02 05:57:56;;;;;;;;;59.75;52.50;;;;;;;;4949618;28;8940;-88
2021/01/02 06:00:24;;;;;;;;;59.50;51.50;;;;;;;;4948737;28;8785;-85
2021/01/02 06:02:51;;;;;;;;;59.00;53.00;;;;;;;;4945312;28;8932;-85
2021/01/02 06:05:18;;;;;;;;;50.00;47.00;;;;;;;;4928758;28;8865;-86
2021/01/02 06:07:50;;;;;;;;;53.00;48.00;;;;;;;;4949345;28;8879;-86
2021/01/02 06:10:18;;;;;;;;;54.50;49.25;;;;;;;;4915588;28;8886;-88
2021/01/02 06:12:45;;;;;;;;;46.50;45.25;;;;;;;;4948500;28;8927;-83
2021/01/02 06:15:14;;;;;;;;;53.75;49.00;;;;;;;;4930903;28;8979;-80
2021/01/02 06:17:43;;;;;;;;;60.50;53.75;;;;;;;;4949632;28;8869;-80
2021/01/02 06:20:11;;;;;;;;;67.50;57.50;;;;;;;;4949219;28;8873;-81
2021/01/02 06:22:41;;;;;;;;;53.25;48.75;;;;;;;;4932459;28;8861;-81
2021/01/02 06:25:09;;;;;;;;;57.25;51.00;;;;;;;;4949406;28;8869;-80
2021/01/02 06:27:40;;;;;;;;;47.75;45.00;;;;;;;;4948318;28;8873;-80
2021/01/02 06:30:09;;;;;;;;;51.00;46.75;;;;;;;;4948475;28;8869;-79
2021/01/02 06:32:35;;;;;;;;;42.00;39.75;;;;;;;;4960518;28;8941;-79
2021/01/02 06:35:18;;;;;;;;;51.75;49.00;;;;;;;;4949087;28;8882;-79
2021/01/02 06:38:08;;;;;;;;;69.00;58.00;;;;;;;;4940760;28;8881;-79
2021/01/02 06:40:38;;;;;;;;;59.25;52.00;;;;;;;;4947450;28;8889;-79
2021/01/02 06:43:07;;;;;;;;;59.00;50.50;;;;;;;;4959320;28;8874;-79
2021/01/02 06:45:52;;;;;;;;;66.75;55.00;;;;;;;;4948117;28;8893;-79
2021/01/02 06:48:40;;;;;;;;;74.50;61.50;;;;;;;;4948264;28;8901;-79
2021/01/02 06:51:26;;;;;;;;;74.50;63.50;;;;;;;;4942782;28;8897;-79
2021/01/02 06:53:53;;;;;;;;;77.75;65.50;;;;;;;;4946180;28;8916;-78
2021/01/02 06:56:32;;;;;;;;;80.25;66.50;;;;;;;;4948903;28;9635;-78
2021/01/02 06:59:01;;;;;;;;;79.50;66.50;;;;;;;;4945432;28;8889;-78
2021/01/02 07:01:43;;;;;;;;;81.00;63.50;;;;;;;;4947497;28;8814;-78
2021/01/02 07:04:11;;;;;;;;;80.75;65.00;;;;;;;;4952799;28;8883;-81
2021/01/02 07:06:43;;;;;;;;;78.00;63.00;;;;;;;;4951539;28;8904;-79
2021/01/02 07:09:26;;;;;;;;;72.25;60.25;;;;;;;;4933824;28;8916;-78
2021/01/02 07:12:07;;;;;;;;;72.50;61.50;;;;;;;;4947296;28;9016;-77
2021/01/02 07:14:35;;;;;;;;;74.25;62.75;;;;;;;;4948260;28;8881;-77
2021/01/02 07:17:03;;;;;;;;;66.75;57.75;;;;;;;;4946759;28;8901;-83
2021/01/02 07:19:44;;;;;;;;;72.75;59.50;;;;;;;;4949394;28;8881;-83
2021/01/02 07:22:14;;;;;;;;;66.75;55.00;;;;;;;;4928699;28;8905;-85
2021/01/02 07:24:45;;;;;;;;;72.00;61.00;;;;;;;;4952770;28;8905;-87
2021/01/02 07:27:14;;;;;;;;;74.00;63.00;;;;;;;;4932364;28;8883;-85
2021/01/02 07:29:43;;;;;;;;;61.25;54.25;;;;;;;;4947770;28;8903;-80
2021/01/02 07:32:12;;;;;;;;;68.00;57.75;;;;;;;;4954504;28;8932;-84
2021/01/02 07:34:40;;;;;;;;;83.00;69.00;;;;;;;;4948160;28;8869;-85
2021/01/02 07:37:09;;;;;;;;;80.50;66.50;;;;;;;;4948382;28;8861;-86
2021/01/02 07:39:36;;;;;;;;;74.00;61.50;;;;;;;;4942263;28;8854;-71
2021/01/02 07:42:05;;;;;;;;;45.50;45.00;;;;;;;;4946237;28;8877;-72
2021/01/02 07:44:32;;;;;;;;;62.75;53.75;;;;;;;;4947917;28;8859;-74
2021/01/02 07:47:01;;;;;;;;;60.00;53.00;;;;;;;;4946984;28;8959;-72
2021/01/02 07:49:28;;;;;;;;;67.50;58.50;;;;;;;;4945925;28;8861;-72
2021/01/02 07:51:55;;;;;;;;;55.00;49.00;;;;;;;;4946724;28;8882;-74
2021/01/02 07:54:32;;;;;;;;;64.50;56.00;;;;;;;;4947550;28;8877;-73
2021/01/02 07:56:59;;;;;;;;;93.75;72.75;;;;;;;;4946670;28;8944;-74
2021/01/02 07:59:28;;;;;;;;;81.00;66.00;;;;;;;;4946617;28;9584;-73
2021/01/02 08:01:56;;;;;;;;;60.50;53.50;;;;;;;;4947047;28;8809;-71
2021/01/02 08:04:25;;;;;;;;;78.50;63.50;;;;;;;;4944242;28;9658;-72
2021/01/02 08:06:54;;;;;;;;;77.50;61.25;;;;;;;;4947308;28;8924;-72
2021/01/02 08:09:21;;;;;;;;;89.75;71.50;;;;;;;;4949585;28;9016;-77
2021/01/02 08:11:53;;;;;;;;;106.25;82.50;;;;;;;;4951620;28;8867;-71
2021/01/02 08:14:21;;;;;;;;;83.75;67.00;;;;;;;;4944182;28;8904;-71
2021/01/02 08:17:06;;;;;;;;;87.25;70.00;;;;;;;;4949704;28;8882;-71
2021/01/02 08:19:37;;;;;;;;;15.50;0.00;;;;;;;;4948094;28;8881;-71
2021/01/02 08:22:06;;;;;;;;;110.50;88.75;;;;;;;;4931881;28;8887;-70
2021/01/02 08:24:33;;;;;;;;;98.50;78.50;;;;;;;;4944190;28;8885;-70
2021/01/02 08:27:02;;;;;;;;;111.50;92.75;;;;;;;;4944700;28;8873;-71
2021/01/02 08:29:31;;;;;;;;;110.75;82.00;;;;;;;;4945597;28;8912;-73
2021/01/02 08:32:01;;;;;;;;;91.00;75.00;;;;;;;;4943641;28;8841;-72
2021/01/02 08:34:31;;;;;;;;;75.25;60.75;;;;;;;;4943776;28;8887;-71
2021/01/02 08:37:08;;;;;;;;;99.25;79.25;;;;;;;;4947977;28;8855;-73
2021/01/02 08:39:36;;;;;;;;;94.75;75.50;;;;;;;;4944508;28;9027;-71
2021/01/02 08:42:04;;;;;;;;;87.75;68.25;;;;;;;;4948936;28;8988;-72
2021/01/02 08:44:35;;;;;;;;;147.75;125.00;;;;;;;;4946277;28;8885;-70
2021/01/02 08:47:02;;;;;;;;;85.75;70.75;;;;;;;;4945440;28;9695;-71
2021/01/02 08:49:40;;;;;;;;;76.00;63.00;;;;;;;;4946843;28;9691;-72
2021/01/02 08:52:35;;;;;;;;;75.50;64.75;;;;;;;;4928407;28;8928;-72
2021/01/02 08:55:10;;;;;;;;;81.25;63.75;;;;;;;;4933653;28;8870;-71
2021/01/02 08:57:43;;;;;;;;;86.75;70.00;;;;;;;;4945586;28;8865;-73
2021/01/02 09:00:16;;;;;;;;;88.50;71.50;;;;;;;;4945835;28;9272;-72
2021/01/02 09:02:44;;;;;;;;;93.00;74.50;;;;;;;;4948443;28;8900;-71
2021/01/02 09:05:12;;;;;;;;;111.00;95.50;;;;;;;;4944572;28;8883;-72
2021/01/02 09:07:53;;;;;;;;;109.50;88.50;;;;;;;;4960252;28;8894;-72
2021/01/02 09:10:27;;;;;;;;;99.75;80.75;;;;;;;;4955366;28;8875;-73
2021/01/02 09:13:19;;;;;;;;;94.25;75.25;;;;;;;;4942348;28;8863;-72
2021/01/02 09:15:54;;;;;;;;;96.75;78.50;;;;;;;;4940351;28;8916;-71
2021/01/02 09:18:44;;;;;;;;;90.50;74.00;;;;;;;;4943755;28;9023;-73
2021/01/02 09:21:22;;;;;;;;;89.00;72.50;;;;;;;;4946646;28;8873;-73
2021/01/02 09:23:50;;;;;;;;;92.25;74.50;;;;;;;;4940012;28;8892;-73
2021/01/02 09:26:29;;;;;;;;;90.75;74.50;;;;;;;;4927167;28;8900;-73
2021/01/02 09:28:57;;;;;;;;;96.25;76.25;;;;;;;;4942777;28;8882;-72
2021/01/02 09:31:25;;;;;;;;;104.00;79.50;;;;;;;;4944365;28;8838;-73
2021/01/02 09:33:52;;;;;;;;;96.75;78.75;;;;;;;;4941611;28;8881;-73
2021/01/02 09:36:21;;;;;;;;;88.75;69.75;;;;;;;;4942550;28;9032;-73
2021/01/02 09:38:50;;;;;;;;;69.67;58.33;;;;;;;;4943150;28;8893;-73
2021/01/02 09:41:20;;;;;;;;;70.67;58.00;;;;;;;;4943384;28;8909;-78
2021/01/02 09:43:47;;;;;;;;;66.00;55.67;;;;;;;;4943396;28;8893;-74
2021/01/02 09:46:17;;;;;;;;;56.67;51.67;;;;;;;;4945447;28;8871;-73
2021/01/02 09:48:45;;;;;;;;;69.00;57.00;;;;;;;;4935583;28;8895;-72
2021/01/02 09:51:12;;;;;;;;;69.67;60.00;;;;;;;;4942108;28;8885;-72
2021/01/02 09:53:39;;;;;;;;;53.67;49.67;;;;;;;;4939994;28;8889;-73
2021/01/02 09:56:07;;;;;;;;;63.00;54.00;;;;;;;;4942941;28;8873;-74
2021/01/02 09:58:34;;;;;;;;;63.67;54.67;;;;;;;;4940546;28;8947;-73
2021/01/02 10:01:01;;;;;;;;;70.67;59.33;;;;;;;;4939637;28;8822;-74
2021/01/02 10:03:28;;;;;;;;;73.33;62.67;;;;;;;;4941893;28;8873;-70
2021/01/02 10:05:55;;;;;;;;;54.33;45.67;;;;;;;;4942400;28;8881;-73
2021/01/02 10:08:23;;;;;;;;;57.67;51.00;;;;;;;;4943446;28;8880;-72
2021/01/02 10:10:50;;;;;;;;;66.33;55.67;;;;;;;;4941747;28;8897;-70
2021/01/02 10:13:17;;;;;;;;;78.00;64.00;;;;;;;;4925491;29;8873;-72
2021/01/02 10:15:46;;;;;;;;;84.67;71.33;;;;;;;;4941384;28;8900;-73
2021/01/02 10:18:13;;;;;;;;;77.67;60.67;;;;;;;;4937241;28;9497;-73
2021/01/02 10:20:40;;;;;;;;;76.33;63.67;;;;;;;;4941579;28;9067;-70
2021/01/02 10:23:07;;;;;;;;;68.00;58.67;;;;;;;;4940947;28;8917;-71
2021/01/02 10:25:34;;;;;;;;;78.00;66.00;;;;;;;;4942349;28;8882;-73
2021/01/02 10:28:01;;;;;;;;;87.00;69.67;;;;;;;;4943177;28;8859;-70
2021/01/02 10:30:31;;;;;;;;;79.67;66.33;;;;;;;;4928987;28;8877;-73
2021/01/02 10:32:59;;;;;;;;;93.33;67.00;;;;;;;;4941131;28;8885;-72
2021/01/02 10:35:25;;;;;;;;;82.67;67.00;;;;;;;;4942120;28;8869;-73
2021/01/02 10:37:53;;;;;;;;;82.67;68.33;;;;;;;;4941666;28;8881;-72
2021/01/02 10:40:20;;;;;;;;;90.67;67.67;;;;;;;;4942627;28;8861;-73
2021/01/02 10:42:47;;;;;;;;;90.33;70.67;;;;;;;;4942242;28;8854;-74
2021/01/02 10:45:17;;;;;;;;;92.33;74.00;;;;;;;;4924926;28;9465;-73
2021/01/02 10:47:44;;;;;;;;;81.67;65.67;;;;;;;;4944415;28;8877;-73
2021/01/02 10:50:12;;;;;;;;;80.67;62.67;;;;;;;;4946101;28;8881;-73
2021/01/02 10:52:39;;;;;;;;;79.67;63.00;;;;;;;;4947251;28;8873;-71
2021/01/02 10:55:07;;;;;;;;;74.67;61.00;;;;;;;;4947133;28;8881;-73
2021/01/02 10:57:34;;;;;;;;;77.00;62.33;;;;;;;;4937311;28;8865;-73
2021/01/02 11:00:05;;;;;;;;;78.67;62.67;;;;;;;;4931235;28;8879;-71
2021/01/02 11:02:31;;;;;;;;;81.67;65.00;;;;;;;;4927093;28;8921;-69
2021/01/02 11:04:58;;;;;;;;;82.67;63.00;;;;;;;;4927752;28;8921;-75
2021/01/02 11:07:26;;;;;;;;;83.00;63.67;;;;;;;;4927511;28;8877;-68
2021/01/02 11:09:53;;;;;;;;;80.33;63.67;;;;;;;;4920819;29;8910;-72
2021/01/02 11:12:21;;;;;;;;;71.00;56.67;;;;;;;;4920099;29;8840;-70
2021/01/02 11:14:48;;;;;;;;;72.33;58.33;;;;;;;;4933900;28;8882;-71
2021/01/02 11:17:14;;;;;;;;;67.00;54.33;;;;;;;;4918479;28;8844;-69
2021/01/02 11:19:43;;;;;;;;;73.33;57.00;;;;;;;;4934079;29;8884;-69
2021/01/02 11:22:10;;;;;;;;;58.00;47.67;;;;;;;;4927691;29;8863;-70
2021/01/02 11:24:42;;;;;;;;;75.67;60.67;;;;;;;;4931903;29;8892;-71
2021/01/02 11:27:09;;;;;;;;;83.00;61.33;;;;;;;;4927211;28;8861;-70
2021/01/02 11:29:36;;;;;;;;;79.00;62.33;;;;;;;;4937285;29;8887;-70
2021/01/02 11:32:07;;;;;;;;;71.33;57.00;;;;;;;;4929890;28;8836;-71
2021/01/02 11:34:34;;;;;;;;;63.00;48.67;;;;;;;;4932230;29;8990;-70
2021/01/02 11:37:02;;;;;;;;;70.33;57.33;;;;;;;;4930320;29;8925;-71
2021/01/02 11:39:30;;;;;;;;;77.00;56.67;;;;;;;;4936784;28;9004;-71
2021/01/02 11:42:00;;;;;;;;;71.67;56.67;;;;;;;;4931243;28;8865;-70
2021/01/02 11:44:27;;;;;;;;;71.33;56.33;;;;;;;;4936105;28;9076;-71
2021/01/02 11:46:56;;;;;;;;;78.33;62.33;;;;;;;;4933581;28;8889;-71
2021/01/02 11:49:24;;;;;;;;;75.00;58.33;;;;;;;;4929646;29;8873;-70
2021/01/02 11:51:52;;;;;;;;;72.33;60.00;;;;;;;;4927833;29;8867;-72
2021/01/02 11:54:19;;;;;;;;;76.33;62.00;;;;;;;;4933925;28;8895;-72
2021/01/02 11:56:46;;;;;;;;;72.33;57.67;;;;;;;;4932503;28;8873;-71
2021/01/02 11:59:14;;;;;;;;;74.00;55.00;;;;;;;;4950104;28;8901;-71
2021/01/02 12:01:43;;;;;;;;;67.00;57.33;;;;;;;;4945834;28;8829;-71
2021/01/02 12:04:12;;;;;;;;;73.67;62.33;;;;;;;;4947481;28;8928;-71
2021/01/02 12:06:40;;;;;;;;;72.00;57.67;;;;;;;;4946700;28;8885;-71
2021/01/02 12:09:07;;;;;;;;;81.67;64.67;;;;;;;;4953674;28;9634;-70
2021/01/02 12:11:37;;;;;;;;;81.33;64.00;;;;;;;;4943453;28;9380;-71
2021/01/02 12:14:05;;;;;;;;;73.67;60.00;;;;;;;;4946291;28;8854;-72
2021/01/02 12:16:34;;;;;;;;;67.00;53.00;;;;;;;;4945659;28;8869;-72
2021/01/02 12:19:02;;;;;;;;;73.67;57.33;;;;;;;;4948774;28;8867;-71
2021/01/02 12:21:29;;;;;;;;;71.67;56.67;;;;;;;;4934127;28;11600;-72
2021/01/02 12:23:56;;;;;;;;;65.00;51.33;;;;;;;;4947476;28;11648;-70
2021/01/02 12:26:24;;;;;;;;;67.67;54.67;;;;;;;;4944907;28;11744;-73
2021/01/02 12:28:51;;;;;;;;;62.67;52.67;;;;;;;;4946143;28;11652;-72
2021/01/02 12:31:20;;;;;;;;;64.00;48.67;;;;;;;;4944879;28;11576;-71
2021/01/02 12:33:48;;;;;;;;;68.00;53.67;;;;;;;;4945897;28;11639;-71
2021/01/02 12:36:17;;;;;;;;;58.33;48.67;;;;;;;;4945863;28;11715;-71
2021/01/02 12:38:45;;;;;;;;;64.67;55.67;;;;;;;;4950802;28;11627;-71
2021/01/02 12:41:15;;;;;;;;;71.00;53.33;;;;;;;;4929952;28;11576;-72
2021/01/02 12:43:43;;;;;;;;;64.67;53.33;;;;;;;;4944956;28;11616;-71
2021/01/02 12:46:11;;;;;;;;;68.00;55.33;;;;;;;;4944477;28;11617;-72
2021/01/02 12:48:38;;;;;;;;;69.00;54.00;;;;;;;;4946100;28;11689;-71
2021/01/02 12:51:07;;;;;;;;;69.33;56.33;;;;;;;;4945643;28;11611;-70
2021/01/02 12:53:34;;;;;;;;;63.33;52.67;;;;;;;;4945617;28;11585;-71
2021/01/02 12:56:03;;;;;;;;;59.33;51.33;;;;;;;;4943582;28;13288;-70
2021/01/02 12:58:30;;;;;;;;;70.00;56.33;;;;;;;;4939329;28;11699;-70
2021/01/02 13:00:57;;;;;;;;;69.33;51.33;;;;;;;;4943814;28;11604;-69
2021/01/02 13:03:24;;;;;;;;;54.33;46.33;;;;;;;;4944905;28;11590;-70
2021/01/02 13:05:51;;;;;;;;;69.67;54.67;;;;;;;;4943332;28;8869;-70
2021/01/02 13:08:19;;;;;;;;;58.33;49.00;;;;;;;;4946048;28;9682;-71
2021/01/02 13:10:46;;;;;;;;;67.00;57.67;;;;;;;;4949363;28;12324;-71
2021/01/02 13:13:13;;;;;;;;;66.00;55.33;;;;;;;;4943865;28;12445;-71
2021/01/02 13:15:40;;;;;;;;;68.33;55.00;;;;;;;;4928440;28;11766;-70
2021/01/02 13:18:06;;;;;;;;;64.67;53.67;;;;;;;;4946106;28;11628;-71
2021/01/02 13:20:33;;;;;;;;;69.33;55.67;;;;;;;;4944834;28;12565;-71
2021/01/02 13:23:00;;;;;;;;;73.00;57.50;;;;;;;;4944546;28;12399;-71
2021/01/02 13:25:28;;;;;;;;;71.00;55.00;;;;;;;;4944662;28;11605;-71
2021/01/02 13:27:55;;;;;;;;;65.50;55.00;;;;;;;;4944530;28;11590;-71
2021/01/02 13:30:23;;;;;;;;;64.67;53.00;;;;;;;;4938755;28;11620;-71
2021/01/02 13:32:50;;;;;;;;;72.33;58.33;;;;;;;;4944542;28;11619;-71
2021/01/02 13:35:17;;;;;;;;;64.50;54.75;;;;;;;;4942957;28;11627;-71
2021/01/02 13:37:44;;;;;;;;;63.00;52.75;;;;;;;;4945079;28;11619;-71
2021/01/02 13:40:12;;;;;;;;;70.00;56.00;;;;;;;;4945123;28;11671;-71
2021/01/02 13:42:41;;;;;;;;;77.00;58.67;;;;;;;;4950059;28;11641;-71
2021/01/02 13:45:09;;;;;;;;;69.33;56.00;;;;;;;;4930001;28;13508;-71
2021/01/02 13:47:37;;;;;;;;;73.00;56.67;;;;;;;;4945236;28;11564;-71
2021/01/02 13:50:06;;;;;;;;;62.67;54.00;;;;;;;;4950019;28;12493;-70
2021/01/02 13:52:33;;;;;;;;;70.33;55.33;;;;;;;;4943218;28;11738;-71
2021/01/02 13:55:00;;;;;;;;;70.25;54.50;;;;;;;;4944630;28;12385;-70
2021/01/02 13:57:27;;;;;;;;;65.67;56.33;;;;;;;;4944792;28;11633;-70
2021/01/02 13:59:55;;;;;;;;;63.33;53.33;;;;;;;;4928687;28;11707;-71
2021/01/02 14:02:22;;;;;;;;;71.67;55.33;;;;;;;;4944331;28;11634;-70
2021/01/02 14:04:51;;;;;;;;;68.33;52.67;;;;;;;;4951754;28;11652;-69
2021/01/02 14:07:19;;;;;;;;;73.67;57.33;;;;;;;;4953708;28;11609;-70
2021/01/02 14:09:46;;;;;;;;;67.00;54.00;;;;;;;;4950277;28;11639;-71
2021/01/02 14:12:13;;;;;;;;;64.67;55.00;;;;;;;;4944550;28;11652;-71
2021/01/02 14:14:41;;;;;;;;;69.67;55.33;;;;;;;;4944622;28;11629;-70
2021/01/02 14:17:09;;;;;;;;;69.67;55.00;;;;;;;;4944572;28;12415;-70
2021/01/02 14:19:37;;;;;;;;;71.33;57.67;;;;;;;;4943208;28;11679;-71
2021/01/02 14:22:04;;;;;;;;;68.67;55.00;;;;;;;;4944666;28;11592;-70
2021/01/02 14:24:33;;;;;;;;;66.00;54.67;;;;;;;;4952415;28;11603;-70
2021/01/02 14:27:01;;;;;;;;;73.00;59.67;;;;;;;;4944585;28;11644;-70
2021/01/02 14:29:29;;;;;;;;;67.00;52.33;;;;;;;;4944996;28;12425;-70
2021/01/02 14:31:56;;;;;;;;;64.33;53.67;;;;;;;;4945085;28;11684;-71
2021/01/02 14:34:28;;;;;;;;;66.75;53.00;;;;;;;;4937662;28;11836;-70
2021/01/02 14:36:56;;;;;;;;;67.75;54.25;;;;;;;;4942052;28;11581;-69
2021/01/02 14:39:23;;;;;;;;;72.00;55.00;;;;;;;;4947617;28;11644;-70
2021/01/02 14:41:50;;;;;;;;;62.75;53.50;;;;;;;;4947023;28;11694;-70
2021/01/02 14:44:17;;;;;;;;;69.25;54.25;;;;;;;;4947519;28;11623;-70
2021/01/02 14:46:44;;;;;;;;;62.00;52.75;;;;;;;;4947670;28;11651;-70